< < Back
Terminal Aerodrome Forecast


Current Version              Previous Versions:   1  2  3  4  5  6  7  8  9  

Terminal Aerodrome Forecast

088
FTUS42 KCAE 171700
TAFAGS
TAF
KAGS 171726Z 1718/1818 06012KT P6SM SCT040 SCT250
     FM180500 06005KT P6SM SCT025 BKN040
     FM181100 03009G15KT P6SM BKN025=



Latest METAR

186
SAUS70 KWBC 180000
MTRAGS
METAR KAGS 172353Z 06006KT 10SM FEW065 16/06 A3033 RMK AO2 SLP270
T01560056 10211 20156 51003


USA.gov is the U.S. government's official web portal to all federal, state and local government web resources and services.